createdAt,value
2019-06-26T00:04:19.835Z,57.00
2019-06-26T00:09:24.135Z,56.90
2019-06-26T00:14:28.446Z,56.80
2019-06-26T00:19:32.758Z,56.80
2019-06-26T00:24:37.146Z,56.70
2019-06-26T00:29:41.451Z,57.00
2019-06-26T00:34:45.794Z,56.60
2019-06-26T00:39:50.086Z,56.50
2019-06-26T00:44:54.402Z,56.50
2019-06-26T00:49:58.720Z,56.50
2019-06-26T00:55:03.185Z,56.40
2019-06-26T01:00:10.064Z,56.10
2019-06-26T01:05:16.287Z,56.40
2019-06-26T01:10:20.920Z,56.30
2019-06-26T01:15:25.230Z,56.40
2019-06-26T01:20:29.537Z,56.90
2019-06-26T01:25:33.844Z,56.20
2019-06-26T01:30:38.149Z,56.20
2019-06-26T01:35:42.458Z,56.20
2019-06-26T01:40:46.941Z,56.10
2019-06-26T01:45:51.262Z,56.10
2019-06-26T01:50:55.648Z,56.10
2019-06-26T01:55:59.978Z,56.20
2019-06-26T02:01:04.299Z,56.20
2019-06-26T02:06:08.612Z,56.40
2019-06-26T02:11:12.916Z,56.50
2019-06-26T02:16:17.216Z,56.40
2019-06-26T02:21:21.592Z,56.40
2019-06-26T02:26:25.903Z,56.60
2019-06-26T02:31:30.202Z,56.50
2019-06-26T02:36:34.517Z,56.70
2019-06-26T02:41:38.818Z,56.80
2019-06-26T02:46:43.136Z,56.80
2019-06-26T02:51:47.437Z,56.80
2019-06-26T02:56:51.740Z,56.90
2019-06-26T03:01:56.056Z,56.90
2019-06-26T03:07:00.374Z,57.00
2019-06-26T03:12:04.740Z,57.20
2019-06-26T03:17:09.047Z,57.30
2019-06-26T03:22:13.364Z,57.20
2019-06-26T03:27:17.680Z,57.10
2019-06-26T03:32:21.983Z,57.20
2019-06-26T03:37:26.976Z,57.10
2019-06-26T03:42:31.260Z,57.20
2019-06-26T03:47:35.588Z,57.30
2019-06-26T03:52:39.892Z,57.30
2019-06-26T03:57:44.202Z,57.30
2019-06-26T04:02:48.504Z,57.40
2019-06-26T04:07:52.810Z,57.40
2019-06-26T04:12:57.114Z,57.50
2019-06-26T04:18:01.418Z,57.40
2019-06-26T04:23:05.718Z,57.50
2019-06-26T04:28:10.027Z,57.60
2019-06-26T04:33:14.323Z,57.60
2019-06-26T04:38:18.627Z,57.70
2019-06-26T04:43:22.941Z,57.60
2019-06-26T04:48:27.227Z,57.60
2019-06-26T04:53:31.539Z,57.70
2019-06-26T04:58:35.836Z,58.00
2019-06-26T05:03:40.142Z,58.60
2019-06-26T05:08:44.456Z,59.00
2019-06-26T05:13:48.759Z,59.40
2019-06-26T05:18:53.082Z,59.60
2019-06-26T05:23:57.385Z,60.10
2019-06-26T05:29:01.694Z,60.50
2019-06-26T05:34:06.000Z,60.90
2019-06-26T05:39:10.482Z,61.20
2019-06-26T05:44:14.795Z,62.00
2019-06-26T05:49:19.103Z,62.30
2019-06-26T05:54:23.437Z,62.70
2019-06-26T05:59:27.746Z,63.30
2019-06-26T06:04:32.050Z,64.10
2019-06-26T06:09:36.516Z,64.10
2019-06-26T06:14:40.986Z,64.60
2019-06-26T06:19:45.574Z,64.90
2019-06-26T06:24:50.082Z,65.10
2019-06-26T06:29:54.393Z,65.20
2019-06-26T06:34:58.702Z,65.60
2019-06-26T06:40:03.288Z,66.10
2019-06-26T06:45:08.301Z,66.30
2019-06-26T06:50:12.883Z,66.40
2019-06-26T06:55:17.439Z,66.50
2019-06-26T07:00:22.163Z,66.60
2019-06-26T07:05:26.485Z,67.10
2019-06-26T07:10:30.798Z,67.10
2019-06-26T07:15:35.105Z,66.70
2019-06-26T07:20:39.416Z,67.00
2019-06-26T07:25:43.731Z,67.40
2019-06-26T07:30:48.079Z,67.90
2019-06-26T07:35:52.391Z,68.50
2019-06-26T07:40:56.717Z,69.10
2019-06-26T07:46:01.564Z,68.70
2019-06-26T07:51:05.874Z,68.90
2019-06-26T07:56:10.249Z,68.40
2019-06-26T08:01:14.567Z,68.40
2019-06-26T08:06:18.873Z,68.50
2019-06-26T08:11:23.295Z,68.70
2019-06-26T08:16:27.611Z,69.00
2019-06-26T08:21:31.930Z,69.20
2019-06-26T08:26:36.248Z,70.20
2019-06-26T08:31:40.546Z,69.10
2019-06-26T08:36:44.860Z,69.20
2019-06-26T08:41:49.169Z,69.30
2019-06-26T08:46:53.478Z,69.40
2019-06-26T08:51:58.512Z,69.40
2019-06-26T08:57:02.808Z,69.60
2019-06-26T09:02:07.383Z,69.80
2019-06-26T09:07:11.690Z,70.20
2019-06-26T09:12:16.003Z,70.10
2019-06-26T09:17:20.419Z,70.70
2019-06-26T09:22:25.514Z,70.90
2019-06-26T09:27:29.818Z,71.10
2019-06-26T09:32:34.130Z,70.90
2019-06-26T09:37:38.446Z,70.60
2019-06-26T09:42:42.754Z,70.90
2019-06-26T09:47:47.058Z,70.70
2019-06-26T09:52:51.375Z,70.80
2019-06-26T09:57:55.688Z,70.40
2019-06-26T10:03:00.062Z,70.60
2019-06-26T10:08:04.476Z,70.70
2019-06-26T10:13:08.792Z,70.00
2019-06-26T10:18:13.210Z,69.50
2019-06-26T10:23:17.507Z,69.00
2019-06-26T10:28:21.920Z,68.50
2019-06-26T10:33:26.442Z,68.10
2019-06-26T10:38:30.741Z,67.70
2019-06-26T10:43:35.056Z,67.50
2019-06-26T10:48:39.389Z,67.10
2019-06-26T10:53:43.689Z,66.80
2019-06-26T10:58:48.185Z,66.60
2019-06-26T11:03:52.684Z,66.30
2019-06-26T11:08:57.013Z,66.20
2019-06-26T11:14:01.311Z,66.10
2019-06-26T11:19:05.870Z,66.30
2019-06-26T11:24:12.535Z,66.30
2019-06-26T11:29:16.464Z,66.30
2019-06-26T11:34:20.780Z,66.20
2019-06-26T11:39:25.280Z,66.00
2019-06-26T11:44:29.574Z,65.90
2019-06-26T11:49:33.897Z,65.90
2019-06-26T11:54:38.210Z,65.80
2019-06-26T11:59:42.510Z,65.40
2019-06-26T12:04:46.812Z,65.10
2019-06-26T12:09:51.806Z,65.20
2019-06-26T12:14:56.166Z,65.90
2019-06-26T12:20:17.025Z,65.80
2019-06-26T12:25:07.591Z,65.80
2019-06-26T12:30:12.435Z,66.10
2019-06-26T12:35:17.017Z,66.10
2019-06-26T12:40:22.222Z,66.00
2019-06-26T12:45:26.530Z,65.60
2019-06-26T12:50:35.932Z,65.70
2019-06-26T12:55:36.868Z,65.80
2019-06-26T13:00:41.243Z,65.90
2019-06-26T13:05:45.555Z,65.60
2019-06-26T13:10:50.590Z,65.50
2019-06-26T13:15:55.047Z,65.40
2019-06-26T13:20:59.415Z,64.90
2019-06-26T13:26:03.696Z,64.90
2019-06-26T13:31:08.018Z,64.80
2019-06-26T13:36:12.315Z,64.70
2019-06-26T13:41:16.640Z,65.60
2019-06-26T13:46:20.961Z,65.90
2019-06-26T13:51:27.089Z,65.80
2019-06-26T13:56:31.665Z,65.60
2019-06-26T14:01:35.980Z,66.10
2019-06-26T14:06:40.287Z,65.80
2019-06-26T14:11:44.593Z,66.10
2019-06-26T14:16:48.906Z,66.10
2019-06-26T14:21:53.218Z,66.20
2019-06-26T14:26:57.544Z,66.30
2019-06-26T14:32:01.871Z,67.40
2019-06-26T14:37:06.159Z,66.40
2019-06-26T14:42:10.489Z,66.10
2019-06-26T14:47:14.798Z,66.00
2019-06-26T14:52:19.118Z,66.40
2019-06-26T14:57:25.978Z,66.10
2019-06-26T15:02:31.951Z,66.40
2019-06-26T15:07:35.816Z,65.90
2019-06-26T15:12:40.063Z,65.90
2019-06-26T15:17:45.986Z,65.30
2019-06-26T15:22:50.275Z,64.90
2019-06-26T15:27:54.584Z,65.10
2019-06-26T15:32:58.894Z,64.80
2019-06-26T15:38:04.004Z,64.30
2019-06-26T15:43:08.322Z,64.70
2019-06-26T15:48:12.644Z,64.10
2019-06-26T15:53:17.010Z,63.00
2019-06-26T15:58:21.331Z,62.40
2019-06-26T16:03:25.808Z,62.00
2019-06-26T16:08:30.149Z,61.60
2019-06-26T16:13:34.531Z,61.50
2019-06-26T16:18:43.342Z,61.20
2019-06-26T16:23:47.642Z,60.20
2019-06-26T16:28:51.999Z,60.30
2019-06-26T16:33:56.307Z,60.30
2019-06-26T16:39:00.614Z,60.10
2019-06-26T16:44:06.030Z,60.20
2019-06-26T16:49:10.341Z,60.00
2019-06-26T16:54:14.826Z,59.70
2019-06-26T16:59:19.165Z,59.70
2019-06-26T17:04:23.458Z,59.90
2019-06-26T17:09:27.799Z,60.00
2019-06-26T17:14:32.191Z,59.10
2019-06-26T17:19:36.493Z,58.50
2019-06-26T17:24:40.795Z,57.80
2019-06-26T17:29:45.112Z,57.60
2019-06-26T17:34:49.487Z,57.60
2019-06-26T17:39:53.810Z,58.20
2019-06-26T17:44:58.282Z,58.80
2019-06-26T17:50:02.615Z,59.20
2019-06-26T17:55:10.351Z,59.10
2019-06-26T18:00:15.298Z,59.40
2019-06-26T18:05:19.575Z,59.40
2019-06-26T18:10:23.890Z,59.30
2019-06-26T18:15:28.193Z,59.30
2019-06-26T18:20:32.506Z,59.50
2019-06-26T18:25:36.818Z,59.40
2019-06-26T18:30:41.125Z,59.50
2019-06-26T18:35:46.963Z,59.80
2019-06-26T18:40:51.265Z,59.60
2019-06-26T18:45:55.575Z,59.60
2019-06-26T18:50:59.882Z,58.50
2019-06-26T18:56:04.358Z,56.10
2019-06-26T19:01:08.671Z,55.50
2019-06-26T19:06:12.981Z,54.90
2019-06-26T19:11:17.919Z,56.60
2019-06-26T19:16:22.229Z,57.50
2019-06-26T19:21:26.534Z,57.90
2019-06-26T19:26:30.857Z,58.20
2019-06-26T19:31:35.173Z,58.20
2019-06-26T19:36:49.671Z,58.20
2019-06-26T19:41:45.528Z,58.30
2019-06-26T19:46:49.835Z,58.40
2019-06-26T19:51:54.150Z,58.50
2019-06-26T19:56:58.710Z,58.50
2019-06-26T20:02:03.080Z,58.40
2019-06-26T20:07:07.346Z,58.30
2019-06-26T20:12:11.654Z,58.20
2019-06-26T20:17:16.035Z,58.20
2019-06-26T20:22:20.338Z,58.60
2019-06-26T20:27:24.912Z,58.10
2019-06-26T20:32:29.228Z,58.70
2019-06-26T20:37:33.528Z,58.80
2019-06-26T20:42:37.835Z,58.70
2019-06-26T20:47:42.145Z,58.60
2019-06-26T20:52:46.451Z,58.40
2019-06-26T20:57:50.766Z,58.80
2019-06-26T21:02:55.066Z,59.10
2019-06-26T21:07:59.700Z,59.10
2019-06-26T21:13:04.267Z,59.20
2019-06-26T21:18:08.626Z,58.80
2019-06-26T21:23:18.787Z,59.30
2019-06-26T21:28:18.969Z,58.50
2019-06-26T21:33:23.281Z,58.50
2019-06-26T21:38:27.574Z,58.50
2019-06-26T21:43:31.882Z,58.30
2019-06-26T21:48:36.190Z,58.20
2019-06-26T21:53:40.497Z,58.10
2019-06-26T21:58:45.557Z,58.00
2019-06-26T22:03:49.850Z,58.30
2019-06-26T22:08:54.186Z,58.50
2019-06-26T22:13:58.488Z,58.60
2019-06-26T22:19:02.795Z,58.70
2019-06-26T22:24:07.106Z,58.40
2019-06-26T22:29:11.436Z,58.50
2019-06-26T22:34:15.718Z,58.30
2019-06-26T22:39:20.022Z,58.40
2019-06-26T22:44:24.335Z,57.80
2019-06-26T22:49:28.684Z,57.80
2019-06-26T22:54:32.950Z,57.50
2019-06-26T22:59:37.259Z,57.50
2019-06-26T23:04:41.559Z,57.40
2019-06-26T23:09:45.872Z,57.40
2019-06-26T23:14:50.165Z,57.40
2019-06-26T23:19:54.476Z,57.00
2019-06-26T23:24:58.791Z,57.00
2019-06-26T23:30:03.563Z,57.00
2019-06-26T23:35:08.040Z,57.20
2019-06-26T23:40:12.620Z,57.10
2019-06-26T23:45:17.527Z,57.00
2019-06-26T23:50:21.826Z,57.00
2019-06-26T23:55:26.136Z,57.10
